Terminal Aerodrome Forecast
Issued by NWS Charleston, WV

Current Version | Previous Version | Graphics & Text | Print | Product List | Glossary On
Versions: 1 2 3 4 5 6 7 8 9 10 11 12 13 14 15 16 17 18 19 20 21 22 23 24
995
FTUS41 KRLX 240250 AAA
TAFEKN
TAF AMD
KEKN 240250Z 2403/2424 VRB03KT P6SM SKC
     FM240500 00000KT 3SM BR SCT001
     FM240700 00000KT 1/4SM FG VV001
     FM241200 00000KT 3SM BR BKN001
     FM241300 20005KT P6SM FEW060=

USA.gov is the U.S. government's official web portal to all federal, state and local government web resources and services.